OITK  Khoy  Airport

Khoy, Iran

Add Bookmark
ICAO OITK
IATA KHY
Type Airport
Status Operational
Latitude
38° 25' 39" N
38.427502
Longitude
44° 58' 24" E
44.973598
Local (GMT +3.5 ) UTC
Sep 27, 2016 05:20 am Sep 27, 2016 01:50
Sunrise-Sunset Local UTC
Begin Civil Twilight 05:55 am 02:25
Sunrise 06:21 am 02:51
Sunset 06:20 pm 14:50
End Civil Twilight 06:46 pm 15:16
VFR
VFR
MVFR
MVFR
IFR
IFR
LIFR
LIFR
Unknown
Unavailable

Current Weather

METAR Observed VFR
OITK 261100Z 18010KT 9999 FEW035 23/03 Q1014 Mon, Sep 26, 2016 @ 11:00 UTC
(14 Hours, 50 Minutes ago)
Visual Flight Rules
Wind Visibility Clouds Conditions
180° at 10 knots (19 kph) 10 km or more
  • Few at 3,500 ft AGL
  • No significant weather
Temperatures Readings Precipitation
Current Temp
23°C
73°F
Dewpoint
3°C
37°F
Humidity 27%
Altimeter 29.94" Hg
Sea Level Pressure 1,014 mb
Field Elevation
1,107 m
3,632 ft
None Recorded
-
-

CheckWX.com is intended as a tool to help pilots better visualize weather data. It is not intended as a substitute for an official weather briefing obtained from a Flight Service Station. CheckWX.com does not meet the FAA requirements for an official pre-flight weather briefing. Therefore, it's important that pilots still call and obtain an official FSS pre-flight weather briefing.

© 2007-2016 CheckWX.com
01:50:30 UTC